createdAt,value
2022-10-13T00:01:06.806Z,31.67
2022-10-13T00:03:53.718Z,24.08
2022-10-13T00:06:43.942Z,33.88
2022-10-13T00:09:29.580Z,27.48
2022-10-13T00:12:20.218Z,24.55
2022-10-13T00:15:07.923Z,30.02
2022-10-13T00:17:53.642Z,26.40
2022-10-13T00:20:44.750Z,27.02
2022-10-13T00:23:29.822Z,29.63
2022-10-13T00:26:16.515Z,34.88
2022-10-13T00:29:04.392Z,34.20
2022-10-13T00:31:53.807Z,28.58
2022-10-13T00:34:39.582Z,32.15
2022-10-13T00:37:25.723Z,26.35
2022-10-13T00:40:11.953Z,30.58
2022-10-13T00:42:57.281Z,31.50
2022-10-13T00:45:42.693Z,32.75
2022-10-13T00:48:31.031Z,34.22
2022-10-13T00:51:19.927Z,27.73
2022-10-13T00:54:09.308Z,28.65
2022-10-13T00:56:59.952Z,33.50
2022-10-13T00:59:45.428Z,31.05
2022-10-13T01:02:34.765Z,28.30
2022-10-13T01:05:21.736Z,33.70
2022-10-13T01:08:10.900Z,30.88
2022-10-13T01:11:28.075Z,33.70
2022-10-13T01:14:33.170Z,26.25
2022-10-13T01:17:41.851Z,30.40
2022-10-13T01:20:50.471Z,32.58
2022-10-13T01:24:03.698Z,40.63
2022-10-13T01:27:15.580Z,30.20
2022-10-13T01:30:22.723Z,30.50
2022-10-13T01:33:07.756Z,31.40
2022-10-13T01:36:08.257Z,35.25
2022-10-13T01:39:07.400Z,27.98
2022-10-13T01:42:00.788Z,27.98
2022-10-13T01:44:54.718Z,35.95
2022-10-13T01:47:42.515Z,27.55
2022-10-13T01:50:28.828Z,30.73
2022-10-13T01:53:18.165Z,28.35
2022-10-13T01:56:05.162Z,28.88
2022-10-13T01:58:53.244Z,26.83
2022-10-13T02:02:08.744Z,34.85
2022-10-13T02:05:11.599Z,29.60
2022-10-13T02:08:15.088Z,32.83
2022-10-13T02:11:22.188Z,30.55
2022-10-13T02:14:18.843Z,36.65
2022-10-13T02:17:05.753Z,37.13
2022-10-13T02:19:54.348Z,38.80
2022-10-13T02:22:47.275Z,37.03
2022-10-13T02:25:34.605Z,36.47
2022-10-13T02:28:20.585Z,33.03
2022-10-13T02:31:07.794Z,32.33
2022-10-13T02:33:53.728Z,35.80
2022-10-13T02:36:39.629Z,29.75
2022-10-13T02:39:24.884Z,24.27
2022-10-13T02:42:10.455Z,29.73
2022-10-13T02:44:56.199Z,30.30
2022-10-13T02:47:41.420Z,31.08
2022-10-13T02:50:26.911Z,30.10
2022-10-13T02:53:15.938Z,32.85
2022-10-13T02:56:01.902Z,25.85
2022-10-13T02:58:49.503Z,34.15
2022-10-13T03:01:35.821Z,33.05
2022-10-13T03:04:21.299Z,30.83
2022-10-13T03:07:09.927Z,30.42
2022-10-13T03:09:55.491Z,38.35
2022-10-13T03:12:41.592Z,35.80
2022-10-13T03:15:27.266Z,43.25
2022-10-13T03:18:14.515Z,36.72
2022-10-13T03:21:02.371Z,43.35
2022-10-13T03:23:47.964Z,46.63
2022-10-13T03:26:33.741Z,36.63
2022-10-13T03:29:22.595Z,42.40
2022-10-13T03:32:08.186Z,35.63
2022-10-13T03:34:54.027Z,41.53
2022-10-13T03:37:39.250Z,42.08
2022-10-13T03:40:24.981Z,48.05
2022-10-13T03:43:11.670Z,35.05
2022-10-13T03:46:02.251Z,45.00
2022-10-13T03:48:48.171Z,36.28
2022-10-13T03:51:34.145Z,43.08
2022-10-13T03:54:19.754Z,36.15
2022-10-13T03:57:06.688Z,44.47
2022-10-13T03:59:52.295Z,47.97
2022-10-13T04:02:37.749Z,48.72
2022-10-13T04:05:23.364Z,37.28
2022-10-13T04:08:09.362Z,37.42
2022-10-13T04:11:09.213Z,37.05
2022-10-13T04:13:58.124Z,41.67
2022-10-13T04:16:47.155Z,43.25
2022-10-13T04:19:36.385Z,40.58
2022-10-13T04:22:23.726Z,40.70
2022-10-13T04:25:19.598Z,43.33
2022-10-13T04:28:06.554Z,37.45
2022-10-13T04:30:54.936Z,40.03
2022-10-13T04:33:40.187Z,33.83
2022-10-13T04:36:26.477Z,43.08
2022-10-13T04:39:12.103Z,50.72
2022-10-13T04:41:57.859Z,36.80
2022-10-13T04:44:43.418Z,36.65
2022-10-13T04:47:34.718Z,35.70
2022-10-13T04:50:26.922Z,40.45
2022-10-13T04:53:19.271Z,42.78
2022-10-13T04:56:08.437Z,39.50
2022-10-13T04:58:54.268Z,38.40
2022-10-13T05:01:39.793Z,48.22
2022-10-13T05:04:26.917Z,37.05
2022-10-13T05:07:18.115Z,35.75
2022-10-13T05:10:04.523Z,44.80
2022-10-13T05:12:53.318Z,36.42
2022-10-13T05:15:39.366Z,44.75
2022-10-13T05:18:24.698Z,51.92
2022-10-13T05:21:22.543Z,43.08
2022-10-13T05:24:13.258Z,45.22
2022-10-13T05:26:59.620Z,48.72
2022-10-13T05:29:44.860Z,46.13
2022-10-13T05:32:30.423Z,50.53
2022-10-13T05:35:15.936Z,59.22
2022-10-13T05:38:01.192Z,55.45
2022-10-13T05:40:46.998Z,48.92
2022-10-13T05:43:33.546Z,65.20
2022-10-13T05:46:19.350Z,63.05
2022-10-13T05:49:04.968Z,64.72
2022-10-13T05:51:57.166Z,58.20
2022-10-13T05:54:47.513Z,78.78
2022-10-13T05:57:37.261Z,74.43
2022-10-13T06:00:23.682Z,76.22
2022-10-13T06:03:19.623Z,84.80
2022-10-13T06:06:05.321Z,78.63
2022-10-13T06:08:51.723Z,90.47
2022-10-13T06:11:37.499Z,100.45
2022-10-13T06:14:25.536Z,87.38
2022-10-13T06:17:10.635Z,80.35
2022-10-13T06:19:56.046Z,80.78
2022-10-13T06:22:41.408Z,76.35
2022-10-13T06:25:27.016Z,88.45
2022-10-13T06:28:13.120Z,88.63
2022-10-13T06:30:58.409Z,77.18
2022-10-13T06:33:44.134Z,67.63
2022-10-13T06:36:29.589Z,68.95
2022-10-13T06:39:15.012Z,72.07
2022-10-13T06:42:00.532Z,57.40
2022-10-13T06:44:47.961Z,58.20
2022-10-13T06:47:33.463Z,67.65
2022-10-13T06:50:18.999Z,63.42
2022-10-13T06:53:04.167Z,62.50
2022-10-13T06:55:52.717Z,59.47
2022-10-13T06:58:44.657Z,64.93
2022-10-13T07:01:30.147Z,69.43
2022-10-13T07:04:16.487Z,61.95
2022-10-13T07:07:01.950Z,56.25
2022-10-13T07:09:47.371Z,56.53
2022-10-13T07:12:33.154Z,51.65
2022-10-13T07:15:18.476Z,53.05
2022-10-13T07:18:03.784Z,50.30
2022-10-13T07:20:50.449Z,59.20
2022-10-13T07:23:35.796Z,50.00
2022-10-13T07:26:21.362Z,54.88
2022-10-13T07:29:06.812Z,51.67
2022-10-13T07:31:52.384Z,60.42
2022-10-13T07:34:40.179Z,57.53
2022-10-13T07:37:26.280Z,52.38
2022-10-13T07:40:11.915Z,55.38
2022-10-13T07:42:57.836Z,48.92
2022-10-13T07:45:43.337Z,51.38
2022-10-13T07:48:29.008Z,43.90
2022-10-13T07:51:17.801Z,46.80
2022-10-13T07:54:03.374Z,43.88
2022-10-13T07:56:52.615Z,48.05
2022-10-13T07:59:38.318Z,49.15
2022-10-13T08:02:23.790Z,35.63
2022-10-13T08:05:09.454Z,48.03
2022-10-13T08:07:57.519Z,41.63
2022-10-13T08:10:43.852Z,38.85
2022-10-13T08:13:29.208Z,48.60
2022-10-13T08:16:24.631Z,43.28
2022-10-13T08:19:18.407Z,37.08
2022-10-13T08:22:06.605Z,43.13
2022-10-13T08:24:57.923Z,37.40
2022-10-13T08:27:50.962Z,44.40
2022-10-13T08:30:37.632Z,37.72
2022-10-13T08:33:30.470Z,33.20
2022-10-13T08:36:17.700Z,31.10
2022-10-13T08:39:03.628Z,42.90
2022-10-13T08:41:50.209Z,37.38
2022-10-13T08:45:15.729Z,32.17
2022-10-13T08:47:54.531Z,37.20
2022-10-13T08:50:46.694Z,44.08
2022-10-13T08:53:40.128Z,45.42
2022-10-13T08:56:36.511Z,31.55
2022-10-13T08:59:22.024Z,35.45
2022-10-13T09:02:16.578Z,34.85
2022-10-13T09:05:05.362Z,34.63
2022-10-13T09:10:55.559Z,41.40
2022-10-13T09:13:41.045Z,31.95
2022-10-13T09:16:33.960Z,31.20
2022-10-13T09:19:25.869Z,30.33
2022-10-13T09:22:23.366Z,30.92
2022-10-13T09:25:11.378Z,26.50
2022-10-13T09:28:08.720Z,27.73
2022-10-13T09:31:13.908Z,32.22
2022-10-13T09:34:13.447Z,26.48
2022-10-13T09:37:05.551Z,31.15
2022-10-13T09:40:32.480Z,32.58
2022-10-13T09:43:33.274Z,30.15
2022-10-13T09:46:25.508Z,37.97
2022-10-13T09:49:40.564Z,29.00
2022-10-13T09:52:26.275Z,29.67
2022-10-13T09:55:35.080Z,35.90
2022-10-13T09:58:30.100Z,24.50
2022-10-13T10:04:13.513Z,31.73
2022-10-13T10:07:02.136Z,30.50
2022-10-13T10:09:58.417Z,26.10
2022-10-13T10:12:44.445Z,23.00
2022-10-13T10:16:02.680Z,26.33
2022-10-13T10:18:50.459Z,17.67
2022-10-13T10:21:47.897Z,26.73
2022-10-13T10:24:55.862Z,26.30
2022-10-13T10:28:02.260Z,24.48
2022-10-13T10:30:54.658Z,22.52
2022-10-13T10:34:17.056Z,19.77
2022-10-13T10:37:09.879Z,26.17
2022-10-13T10:40:16.722Z,22.48
2022-10-13T10:43:32.746Z,17.65
2022-10-13T10:46:27.934Z,20.17
2022-10-13T10:49:22.211Z,25.95
2022-10-13T10:52:10.955Z,21.38
2022-10-13T10:55:34.103Z,22.75
2022-10-13T10:58:35.079Z,21.00
2022-10-13T11:01:27.980Z,25.40
2022-10-13T11:04:40.575Z,23.00
2022-10-13T11:07:30.128Z,21.92
2022-10-13T11:10:17.493Z,23.08
2022-10-13T11:13:16.572Z,21.85
2022-10-13T11:16:40.925Z,22.75
2022-10-13T11:19:39.674Z,27.85
2022-10-13T11:22:26.118Z,20.00
2022-10-13T11:25:41.131Z,26.92
2022-10-13T11:28:41.698Z,23.85
2022-10-13T11:31:55.603Z,25.88
2022-10-13T11:35:06.551Z,21.05
2022-10-13T11:38:06.826Z,18.83
2022-10-13T11:41:08.733Z,20.67
2022-10-13T11:44:09.037Z,24.88
2022-10-13T11:47:25.065Z,27.80
2022-10-13T11:50:19.302Z,23.95
2022-10-13T11:53:19.963Z,20.73
2022-10-13T11:56:57.229Z,23.33
2022-10-13T11:59:47.005Z,33.30
2022-10-13T12:02:32.466Z,35.65
2022-10-13T12:05:29.163Z,23.85
2022-10-13T12:08:15.477Z,24.48
2022-10-13T12:11:04.788Z,19.90
2022-10-13T12:13:51.024Z,23.85
2022-10-13T12:16:36.312Z,22.50
2022-10-13T12:19:25.276Z,26.30
2022-10-13T12:22:14.782Z,23.15
2022-10-13T12:25:06.379Z,21.67
2022-10-13T12:27:54.295Z,25.00
2022-10-13T12:30:42.800Z,28.67
2022-10-13T12:33:35.352Z,30.77
2022-10-13T12:36:25.141Z,31.70
2022-10-13T12:39:14.162Z,29.23
2022-10-13T12:42:06.373Z,28.35
2022-10-13T12:44:55.455Z,29.02
2022-10-13T12:47:49.557Z,26.27
2022-10-13T12:50:36.738Z,31.13
2022-10-13T12:53:28.871Z,24.65
2022-10-13T12:56:42.627Z,27.70
2022-10-13T12:59:30.173Z,24.27
2022-10-13T13:02:25.975Z,31.92
2022-10-13T13:05:35.544Z,28.55
2022-10-13T13:08:37.191Z,26.83
2022-10-13T13:11:33.404Z,25.73
2022-10-13T13:14:38.591Z,22.30
2022-10-13T13:17:53.367Z,21.00
2022-10-13T13:20:37.694Z,21.33
2022-10-13T13:23:23.714Z,22.45
2022-10-13T13:26:23.162Z,25.67
2022-10-13T13:29:10.648Z,25.52
2022-10-13T13:31:56.092Z,21.60
2022-10-13T13:34:44.309Z,22.38
2022-10-13T13:37:48.865Z,21.88
2022-10-13T13:40:34.169Z,25.00
2022-10-13T13:43:20.199Z,29.15
2022-10-13T13:46:07.288Z,31.33
2022-10-13T13:48:52.600Z,22.15
2022-10-13T13:51:38.151Z,25.63
2022-10-13T13:54:24.116Z,29.58
2022-10-13T13:57:11.091Z,24.85
2022-10-13T13:59:56.638Z,31.05
2022-10-13T14:02:43.737Z,26.50
2022-10-13T14:05:29.102Z,27.88
2022-10-13T14:08:14.236Z,20.58
2022-10-13T14:10:59.963Z,29.00
2022-10-13T14:13:47.948Z,26.73
2022-10-13T14:16:45.650Z,22.23
2022-10-13T14:19:32.274Z,25.45
2022-10-13T14:22:17.881Z,24.70
2022-10-13T14:25:03.505Z,25.55
2022-10-13T14:27:55.358Z,22.98
2022-10-13T14:30:41.408Z,23.00
2022-10-13T14:33:26.756Z,26.10
2022-10-13T14:36:12.508Z,23.10
2022-10-13T14:38:58.208Z,16.80
2022-10-13T14:41:43.912Z,13.23
2022-10-13T14:44:29.295Z,8.30
2022-10-13T14:47:15.053Z,8.35
2022-10-13T14:50:01.934Z,6.13
2022-10-13T14:52:47.760Z,4.15
2022-10-13T14:55:33.312Z,4.68
2022-10-13T14:58:18.803Z,5.38
2022-10-13T15:01:04.205Z,5.03
2022-10-13T15:03:50.132Z,4.80
2022-10-13T15:06:35.854Z,5.20
2022-10-13T15:09:25.642Z,8.30
2022-10-13T15:12:19.465Z,8.63
2022-10-13T15:15:06.035Z,7.65
2022-10-13T15:17:51.223Z,6.72
2022-10-13T15:20:36.657Z,5.18
2022-10-13T15:23:22.795Z,3.35
2022-10-13T15:26:08.581Z,3.25
2022-10-13T15:28:54.496Z,6.25
2022-10-13T15:31:42.638Z,3.33
2022-10-13T15:34:30.073Z,3.28
2022-10-13T15:37:20.751Z,3.65
2022-10-13T15:40:06.742Z,2.33
2022-10-13T15:42:53.032Z,3.75
2022-10-13T15:45:38.695Z,2.45
2022-10-13T15:48:28.576Z,2.40
2022-10-13T15:51:16.464Z,2.83
2022-10-13T15:54:01.993Z,2.53
2022-10-13T15:56:47.264Z,5.57
2022-10-13T15:59:36.037Z,3.13
2022-10-13T16:02:23.466Z,3.67
2022-10-13T16:05:12.624Z,3.67
2022-10-13T16:07:58.014Z,4.88
2022-10-13T16:10:43.941Z,5.13
2022-10-13T16:13:29.412Z,7.53
2022-10-13T16:16:18.079Z,10.07
2022-10-13T16:19:06.786Z,7.90
2022-10-13T16:21:52.466Z,8.63
2022-10-13T16:24:38.435Z,9.30
2022-10-13T16:27:24.770Z,9.23
2022-10-13T16:30:11.829Z,11.07
2022-10-13T16:32:58.027Z,12.00
2022-10-13T16:35:44.716Z,11.55
2022-10-13T16:38:35.311Z,12.02
2022-10-13T16:41:21.068Z,11.82
2022-10-13T16:44:09.597Z,12.90
2022-10-13T16:46:57.025Z,16.02
2022-10-13T16:49:42.425Z,14.70
2022-10-13T16:52:29.791Z,15.77
2022-10-13T16:55:18.067Z,17.17
2022-10-13T16:58:05.798Z,17.27
2022-10-13T17:00:51.424Z,20.25
2022-10-13T17:03:38.363Z,17.77
2022-10-13T17:06:26.756Z,18.35
2022-10-13T17:09:14.974Z,15.90
2022-10-13T17:12:00.740Z,13.20
2022-10-13T17:14:48.054Z,17.15
2022-10-13T17:17:36.396Z,15.32
2022-10-13T17:20:21.839Z,12.25
2022-10-13T17:23:09.523Z,17.30
2022-10-13T17:25:56.120Z,18.25
2022-10-13T17:28:42.189Z,15.55
2022-10-13T17:31:27.966Z,13.40
2022-10-13T17:34:13.542Z,12.35
2022-10-13T17:36:59.399Z,11.55
2022-10-13T17:39:47.950Z,14.30
2022-10-13T17:42:34.213Z,13.55
2022-10-13T17:45:19.725Z,13.60
2022-10-13T17:48:05.208Z,16.17
2022-10-13T17:50:52.460Z,16.02
2022-10-13T17:53:45.768Z,17.33
2022-10-13T17:56:31.783Z,16.40
2022-10-13T17:59:20.483Z,16.35
2022-10-13T18:02:05.943Z,15.32
2022-10-13T18:04:51.350Z,16.92
2022-10-13T18:07:36.855Z,20.02
2022-10-13T18:10:22.478Z,24.17
2022-10-13T18:13:12.407Z,24.55
2022-10-13T18:16:31.944Z,25.73
2022-10-13T18:19:21.825Z,29.67
2022-10-13T18:22:08.663Z,30.80
2022-10-13T18:24:57.066Z,35.65
2022-10-13T18:27:43.230Z,33.10
2022-10-13T18:30:28.902Z,37.75
2022-10-13T18:33:14.648Z,39.55
2022-10-13T18:36:00.351Z,42.47
2022-10-13T18:38:51.910Z,53.75
2022-10-13T18:41:38.232Z,50.35
2022-10-13T18:44:25.020Z,55.28
2022-10-13T18:47:10.544Z,64.57
2022-10-13T18:49:58.032Z,63.42
2022-10-13T18:52:43.440Z,72.78
2022-10-13T18:55:28.998Z,77.78
2022-10-13T18:58:14.501Z,78.95
2022-10-13T19:01:08.274Z,89.30
2022-10-13T19:03:54.374Z,101.40
2022-10-13T19:06:40.263Z,108.47
2022-10-13T19:09:26.489Z,100.63
2022-10-13T19:12:12.061Z,105.20
2022-10-13T19:15:00.406Z,106.35
2022-10-13T19:17:49.171Z,128.52
2022-10-13T19:20:34.847Z,129.00
2022-10-13T19:23:22.890Z,131.35
2022-10-13T19:26:15.311Z,136.95
2022-10-13T19:29:08.080Z,133.13
2022-10-13T19:31:53.277Z,142.02
2022-10-13T19:34:38.674Z,137.07
2022-10-13T19:37:24.990Z,152.02
2022-10-13T19:40:10.281Z,146.10
2022-10-13T19:42:56.015Z,148.50
2022-10-13T19:45:46.870Z,149.20
2022-10-13T19:48:37.314Z,176.38
2022-10-13T19:51:22.622Z,159.98
2022-10-13T19:54:13.994Z,150.82
2022-10-13T19:57:03.043Z,156.45
2022-10-13T19:59:48.601Z,170.75
2022-10-13T20:02:34.076Z,162.50
2022-10-13T20:05:24.646Z,187.38
2022-10-13T20:08:12.198Z,203.90
2022-10-13T20:11:00.911Z,195.13
2022-10-13T20:13:47.497Z,193.90
2022-10-13T20:16:33.332Z,207.30
2022-10-13T20:19:19.727Z,220.98
2022-10-13T20:22:06.392Z,216.82
2022-10-13T20:24:57.646Z,205.18
2022-10-13T20:27:43.173Z,222.45
2022-10-13T20:30:32.540Z,199.32
2022-10-13T20:33:18.050Z,190.20
2022-10-13T20:36:06.196Z,198.88
2022-10-13T20:38:51.581Z,205.95
2022-10-13T20:41:38.622Z,193.73
2022-10-13T20:44:24.128Z,175.25
2022-10-13T20:47:09.491Z,186.38
2022-10-13T20:49:57.431Z,144.98
2022-10-13T20:52:42.952Z,182.70
2022-10-13T20:55:38.152Z,170.40
2022-10-13T20:58:31.901Z,176.98
2022-10-13T21:01:22.236Z,168.90
2022-10-13T21:04:07.501Z,156.07
2022-10-13T21:06:53.109Z,136.15
2022-10-13T21:09:38.524Z,134.85
2022-10-13T21:12:23.747Z,144.68
2022-10-13T21:15:09.524Z,152.38
2022-10-13T21:17:55.082Z,140.52
2022-10-13T21:20:43.495Z,134.27
2022-10-13T21:23:28.783Z,124.93
2022-10-13T21:26:21.373Z,110.82
2022-10-13T21:29:07.123Z,106.30
2022-10-13T21:31:52.692Z,116.32
2022-10-13T21:34:41.329Z,103.07
2022-10-13T21:37:26.504Z,108.45
2022-10-13T21:40:12.195Z,97.60
2022-10-13T21:42:57.629Z,107.72
2022-10-13T21:45:43.264Z,115.45
2022-10-13T21:48:28.515Z,114.40
2022-10-13T21:51:20.110Z,106.22
2022-10-13T21:54:11.162Z,94.20
2022-10-13T21:56:56.167Z,96.80
2022-10-13T21:59:41.742Z,101.38
2022-10-13T22:02:27.046Z,111.60
2022-10-13T22:05:13.107Z,108.80
2022-10-13T22:07:58.742Z,111.28
2022-10-13T22:10:44.287Z,109.10
2022-10-13T22:13:29.776Z,114.20
2022-10-13T22:16:21.179Z,126.93
2022-10-13T22:19:06.809Z,135.70
2022-10-13T22:21:53.900Z,126.78
2022-10-13T22:24:39.319Z,131.30
2022-10-13T22:27:24.728Z,127.07
2022-10-13T22:30:13.448Z,136.90
2022-10-13T22:32:58.827Z,122.13
2022-10-13T22:35:46.527Z,119.15
2022-10-13T22:38:32.752Z,114.70
2022-10-13T22:41:21.119Z,109.97
2022-10-13T22:44:08.515Z,114.28
2022-10-13T22:46:53.859Z,109.45
2022-10-13T22:49:39.164Z,115.18
2022-10-13T22:52:24.487Z,105.68
2022-10-13T22:55:11.867Z,120.40
2022-10-13T22:57:57.921Z,111.13
2022-10-13T23:00:46.024Z,147.32
2022-10-13T23:03:31.404Z,142.10
2022-10-13T23:06:18.990Z,165.90
2022-10-13T23:09:05.995Z,158.13
2022-10-13T23:11:51.135Z,164.65
2022-10-13T23:14:39.964Z,196.80
2022-10-13T23:17:28.247Z,220.50
2022-10-13T23:20:13.396Z,214.38
2022-10-13T23:22:58.671Z,238.10
2022-10-13T23:25:43.988Z,241.95
2022-10-13T23:28:31.061Z,298.67
2022-10-13T23:31:17.333Z,313.70
2022-10-13T23:34:02.639Z,330.10
2022-10-13T23:36:48.115Z,388.83
2022-10-13T23:39:33.465Z,485.35
2022-10-13T23:42:21.923Z,699.40
2022-10-13T23:45:07.877Z,646.38
2022-10-13T23:47:53.338Z,535.97
2022-10-13T23:50:38.699Z,482.33
2022-10-13T23:53:24.679Z,419.45
2022-10-13T23:56:11.765Z,386.48
2022-10-13T23:58:57.124Z,403.98
